createdAt,value
2022-08-29T00:01:05.686Z,16.55
2022-08-29T00:03:33.540Z,11.50
2022-08-29T00:06:01.452Z,17.88
2022-08-29T00:08:29.273Z,14.10
2022-08-29T00:10:57.063Z,15.05
2022-08-29T00:13:25.130Z,14.37
2022-08-29T00:15:52.912Z,14.27
2022-08-29T00:18:21.029Z,13.23
2022-08-29T00:20:48.935Z,12.98
2022-08-29T00:23:17.558Z,16.67
2022-08-29T00:25:45.255Z,12.75
2022-08-29T00:28:13.596Z,14.65
2022-08-29T00:30:41.427Z,14.70
2022-08-29T00:33:09.987Z,16.77
2022-08-29T00:35:40.725Z,16.53
2022-08-29T00:38:11.207Z,12.90
2022-08-29T00:40:53.072Z,14.88
2022-08-29T00:43:28.264Z,17.73
2022-08-29T00:46:11.095Z,14.27
2022-08-29T00:48:40.182Z,12.80
2022-08-29T00:51:15.146Z,12.07
2022-08-29T00:53:45.810Z,12.63
2022-08-29T00:56:15.926Z,14.05
2022-08-29T00:59:07.140Z,12.47
2022-08-29T01:01:35.418Z,17.63
2022-08-29T01:04:03.378Z,17.73
2022-08-29T01:06:35.376Z,14.57
2022-08-29T01:09:04.497Z,15.93
2022-08-29T01:11:51.466Z,16.52
2022-08-29T01:14:22.380Z,15.55
2022-08-29T01:16:53.263Z,12.98
2022-08-29T01:19:43.371Z,17.90
2022-08-29T01:22:37.185Z,17.85
2022-08-29T01:25:15.275Z,13.93
2022-08-29T01:27:47.349Z,13.82
2022-08-29T01:30:15.522Z,16.00
2022-08-29T01:32:43.502Z,13.85
2022-08-29T01:35:12.098Z,13.45
2022-08-29T01:37:44.446Z,14.60
2022-08-29T01:40:13.787Z,14.73
2022-08-29T01:42:41.692Z,14.20
2022-08-29T01:45:10.291Z,12.63
2022-08-29T01:47:39.296Z,13.98
2022-08-29T01:50:13.733Z,14.73
2022-08-29T01:52:43.039Z,16.17
2022-08-29T01:55:10.881Z,15.35
2022-08-29T01:57:39.970Z,12.35
2022-08-29T02:00:10.657Z,14.20
2022-08-29T02:02:39.461Z,18.75
2022-08-29T02:05:09.808Z,17.13
2022-08-29T02:07:37.624Z,17.30
2022-08-29T02:10:07.348Z,14.98
2022-08-29T02:12:36.164Z,14.97
2022-08-29T02:15:04.526Z,16.15
2022-08-29T02:17:32.158Z,17.70
2022-08-29T02:20:04.599Z,15.45
2022-08-29T02:22:39.923Z,15.85
2022-08-29T02:25:29.060Z,15.73
2022-08-29T02:27:57.981Z,15.00
2022-08-29T02:30:25.958Z,14.95
2022-08-29T02:32:54.395Z,12.73
2022-08-29T02:35:22.926Z,14.00
2022-08-29T02:37:52.910Z,13.90
2022-08-29T02:40:26.123Z,13.97
2022-08-29T02:43:01.674Z,17.70
2022-08-29T02:45:29.421Z,12.32
2022-08-29T02:47:57.271Z,12.88
2022-08-29T02:50:25.900Z,14.68
2022-08-29T02:52:54.429Z,13.35
2022-08-29T02:55:23.347Z,13.93
2022-08-29T02:57:52.877Z,14.30
2022-08-29T03:00:25.770Z,14.48
2022-08-29T03:02:55.414Z,13.48
2022-08-29T03:05:27.817Z,14.13
2022-08-29T03:07:57.118Z,11.45
2022-08-29T03:10:25.382Z,13.13
2022-08-29T03:12:53.325Z,12.63
2022-08-29T03:15:21.931Z,11.93
2022-08-29T03:17:50.774Z,13.88
2022-08-29T03:20:21.314Z,15.20
2022-08-29T03:22:49.877Z,14.85
2022-08-29T03:25:17.953Z,14.30
2022-08-29T03:27:45.728Z,13.40
2022-08-29T03:30:15.764Z,13.38
2022-08-29T03:32:43.643Z,13.48
2022-08-29T03:35:14.008Z,13.85
2022-08-29T03:37:41.974Z,17.93
2022-08-29T03:40:10.685Z,15.30
2022-08-29T03:42:38.792Z,13.63
2022-08-29T03:45:09.126Z,13.20
2022-08-29T03:47:36.972Z,15.93
2022-08-29T03:50:05.211Z,12.60
2022-08-29T03:52:32.959Z,15.25
2022-08-29T03:55:01.016Z,17.27
2022-08-29T03:57:31.348Z,13.15
2022-08-29T03:59:59.783Z,11.35
2022-08-29T04:02:27.908Z,15.57
2022-08-29T04:05:08.457Z,14.35
2022-08-29T04:07:42.594Z,13.75
2022-08-29T04:10:12.789Z,12.30
2022-08-29T04:12:40.535Z,13.43
2022-08-29T04:15:08.878Z,19.65
2022-08-29T04:17:37.836Z,12.43
2022-08-29T04:20:25.326Z,13.43
2022-08-29T04:22:55.040Z,14.18
2022-08-29T04:25:26.637Z,13.93
2022-08-29T04:27:56.594Z,11.57
2022-08-29T04:30:26.079Z,11.15
2022-08-29T04:32:57.463Z,11.07
2022-08-29T04:35:25.655Z,12.73
2022-08-29T04:37:53.597Z,10.60
2022-08-29T04:40:23.404Z,11.07
2022-08-29T04:42:51.604Z,11.45
2022-08-29T04:45:21.754Z,10.90
2022-08-29T04:47:49.776Z,13.30
2022-08-29T04:50:20.519Z,12.95
2022-08-29T04:52:49.948Z,10.88
2022-08-29T04:55:21.632Z,10.05
2022-08-29T04:57:52.568Z,11.43
2022-08-29T05:00:23.735Z,10.85
2022-08-29T05:02:51.609Z,11.82
2022-08-29T05:05:19.351Z,15.43
2022-08-29T05:07:47.347Z,13.75
2022-08-29T05:10:20.742Z,13.57
2022-08-29T05:12:48.757Z,13.65
2022-08-29T05:15:17.214Z,13.93
2022-08-29T05:17:45.763Z,17.48
2022-08-29T05:20:14.167Z,14.18
2022-08-29T05:22:42.516Z,12.95
2022-08-29T05:25:17.394Z,14.90
2022-08-29T05:27:46.982Z,13.57
2022-08-29T05:30:25.092Z,14.23
2022-08-29T05:33:04.543Z,15.63
2022-08-29T05:35:33.495Z,14.35
2022-08-29T05:38:08.541Z,15.20
2022-08-29T05:40:37.625Z,12.63
2022-08-29T05:43:06.847Z,13.35
2022-08-29T05:45:34.554Z,14.55
2022-08-29T05:48:07.180Z,15.30
2022-08-29T05:50:42.405Z,12.37
2022-08-29T05:53:12.350Z,14.17
2022-08-29T05:55:42.077Z,12.82
2022-08-29T05:58:10.490Z,18.50
2022-08-29T06:00:46.560Z,18.37
2022-08-29T06:03:15.400Z,17.63
2022-08-29T06:05:43.154Z,15.90
2022-08-29T06:08:11.193Z,15.63
2022-08-29T06:10:45.316Z,13.73
2022-08-29T06:13:14.574Z,13.90
2022-08-29T06:15:46.119Z,18.48
2022-08-29T06:18:14.085Z,17.77
2022-08-29T06:20:42.461Z,17.40
2022-08-29T06:23:10.250Z,19.10
2022-08-29T06:25:39.484Z,20.05
2022-08-29T06:28:08.521Z,18.05
2022-08-29T06:30:36.314Z,16.48
2022-08-29T06:33:04.263Z,17.13
2022-08-29T06:35:31.854Z,19.70
2022-08-29T06:37:59.616Z,21.95
2022-08-29T06:40:27.673Z,18.30
2022-08-29T06:42:55.600Z,20.42
2022-08-29T06:45:23.366Z,17.05
2022-08-29T06:47:51.161Z,23.65
2022-08-29T06:50:19.053Z,20.52
2022-08-29T06:52:47.125Z,17.30
2022-08-29T06:55:15.001Z,20.60
2022-08-29T06:57:46.269Z,20.10
2022-08-29T07:00:22.171Z,17.63
2022-08-29T07:02:52.819Z,17.37
2022-08-29T07:05:22.536Z,20.42
2022-08-29T07:07:51.554Z,20.42
2022-08-29T07:10:22.818Z,21.92
2022-08-29T07:12:54.467Z,19.20
2022-08-29T07:15:29.239Z,20.60
2022-08-29T07:18:00.176Z,18.63
2022-08-29T07:20:44.722Z,18.45
2022-08-29T07:23:26.049Z,18.48
2022-08-29T07:25:57.405Z,19.85
2022-08-29T07:28:35.470Z,18.33
2022-08-29T07:31:12.057Z,17.27
2022-08-29T07:34:00.732Z,14.50
2022-08-29T07:36:39.786Z,19.23
2022-08-29T07:39:17.301Z,17.65
2022-08-29T07:41:51.797Z,15.80
2022-08-29T07:44:22.077Z,16.52
2022-08-29T07:47:05.333Z,18.83
2022-08-29T07:49:42.584Z,18.13
2022-08-29T07:52:25.645Z,17.77
2022-08-29T07:55:00.403Z,16.30
2022-08-29T07:57:32.764Z,19.40
2022-08-29T08:00:10.151Z,13.85
2022-08-29T08:02:45.899Z,15.85
2022-08-29T08:05:20.547Z,13.95
2022-08-29T08:22:45.881Z,18.15
2022-08-29T08:25:14.148Z,20.75
2022-08-29T08:27:43.581Z,13.45
2022-08-29T08:30:12.113Z,16.90
2022-08-29T08:32:43.090Z,14.98
2022-08-29T08:35:14.331Z,17.70
2022-08-29T08:37:42.072Z,16.42
2022-08-29T08:40:16.813Z,16.60
2022-08-29T08:42:46.154Z,14.73
2022-08-29T08:45:16.967Z,13.70
2022-08-29T08:48:03.809Z,16.08
2022-08-29T08:50:42.658Z,12.33
2022-08-29T08:53:42.964Z,15.90
2022-08-29T08:56:31.285Z,13.40
2022-08-29T08:59:03.388Z,21.53
2022-08-29T09:01:34.507Z,16.60
2022-08-29T09:04:20.990Z,14.63
2022-08-29T09:06:57.919Z,15.60
2022-08-29T09:09:44.800Z,16.73
2022-08-29T09:12:45.665Z,17.60
2022-08-29T09:15:21.169Z,14.97
2022-08-29T09:18:13.554Z,14.30
2022-08-29T09:20:42.851Z,15.35
2022-08-29T09:23:31.650Z,15.20
2022-08-29T09:25:59.895Z,19.70
2022-08-29T09:28:27.404Z,14.82
2022-08-29T09:31:26.346Z,19.50
2022-08-29T09:34:00.210Z,14.85
2022-08-29T09:36:54.444Z,16.98
2022-08-29T09:39:31.589Z,15.30
2022-08-29T09:42:19.564Z,15.23
2022-08-29T09:44:55.306Z,15.82
2022-08-29T09:47:24.391Z,13.23
2022-08-29T09:50:02.940Z,15.13
2022-08-29T09:52:30.939Z,16.30
2022-08-29T09:55:00.859Z,12.05
2022-08-29T09:57:29.873Z,15.48
2022-08-29T10:00:14.991Z,15.10
2022-08-29T10:02:52.345Z,17.23
2022-08-29T10:05:41.842Z,13.35
2022-08-29T10:08:30.015Z,17.55
2022-08-29T10:11:03.768Z,16.70
2022-08-29T10:13:43.178Z,13.80
2022-08-29T10:16:17.864Z,17.98
2022-08-29T10:18:53.505Z,21.52
2022-08-29T10:21:49.122Z,18.90
2022-08-29T10:24:18.921Z,13.30
2022-08-29T10:26:56.433Z,16.33
2022-08-29T10:29:42.790Z,12.60
2022-08-29T10:32:38.221Z,13.82
2022-08-29T10:35:19.862Z,16.83
2022-08-29T10:38:10.278Z,13.23
2022-08-29T10:40:43.216Z,12.57
2022-08-29T10:43:39.168Z,13.50
2022-08-29T10:46:44.147Z,14.70
2022-08-29T10:49:48.579Z,16.73
2022-08-29T10:52:25.111Z,14.60
2022-08-29T10:55:19.998Z,19.77
2022-08-29T10:58:17.074Z,15.23
2022-08-29T11:01:06.927Z,14.18
2022-08-29T11:03:50.380Z,16.30
2022-08-29T11:06:30.058Z,15.23
2022-08-29T11:09:21.925Z,19.92
2022-08-29T11:12:04.885Z,17.42
2022-08-29T11:14:45.441Z,19.95
2022-08-29T11:17:17.362Z,15.48
2022-08-29T11:20:00.505Z,15.80
2022-08-29T11:22:35.710Z,17.02
2022-08-29T11:25:12.407Z,12.18
2022-08-29T11:28:22.485Z,13.87
2022-08-29T11:31:15.134Z,17.83
2022-08-29T11:33:53.421Z,14.82
2022-08-29T11:36:32.997Z,17.58
2022-08-29T11:39:08.720Z,14.73
2022-08-29T11:41:38.996Z,12.55
2022-08-29T11:44:15.766Z,14.00
2022-08-29T11:46:48.964Z,12.53
2022-08-29T11:49:39.115Z,17.55
2022-08-29T11:52:11.166Z,15.95
2022-08-29T11:54:40.297Z,11.90
2022-08-29T11:57:10.769Z,17.00
2022-08-29T11:59:50.254Z,12.05
2022-08-29T12:02:32.688Z,12.85
2022-08-29T12:05:00.925Z,12.98
2022-08-29T12:07:49.600Z,14.15
2022-08-29T12:10:23.890Z,17.77
2022-08-29T12:12:53.550Z,19.75
2022-08-29T12:15:33.343Z,18.43
2022-08-29T12:18:22.625Z,19.13
2022-08-29T12:20:55.933Z,19.75
2022-08-29T12:23:31.663Z,18.30
2022-08-29T12:26:22.848Z,20.58
2022-08-29T12:29:00.751Z,22.93
2022-08-29T12:32:02.402Z,21.02
2022-08-29T12:34:54.941Z,25.10
2022-08-29T12:37:31.877Z,16.60
2022-08-29T12:40:09.392Z,18.83
2022-08-29T12:42:45.497Z,19.50
2022-08-29T12:45:24.380Z,20.52
2022-08-29T12:47:55.861Z,18.92
2022-08-29T12:50:30.885Z,16.70
2022-08-29T12:53:06.866Z,15.23
2022-08-29T12:55:42.348Z,16.90
2022-08-29T12:58:12.731Z,18.05
2022-08-29T13:00:41.547Z,16.52
2022-08-29T13:03:19.785Z,16.17
2022-08-29T13:05:48.447Z,17.38
2022-08-29T13:08:32.453Z,15.80
2022-08-29T13:11:04.617Z,12.52
2022-08-29T13:13:32.527Z,14.60
2022-08-29T13:16:03.049Z,14.83
2022-08-29T13:18:40.306Z,20.40
2022-08-29T13:21:26.590Z,15.90
2022-08-29T13:23:59.255Z,15.40
2022-08-29T13:26:29.379Z,14.30
2022-08-29T13:29:04.312Z,19.50
2022-08-29T13:31:36.426Z,14.77
2022-08-29T13:34:13.938Z,15.80
2022-08-29T13:36:59.436Z,13.00
2022-08-29T13:39:30.174Z,13.93
2022-08-29T13:42:04.431Z,15.23
2022-08-29T13:44:46.052Z,16.03
2022-08-29T13:47:22.938Z,13.82
2022-08-29T13:49:52.045Z,13.32
2022-08-29T13:52:20.269Z,14.00
2022-08-29T13:54:48.064Z,15.87
2022-08-29T13:57:24.151Z,16.92
2022-08-29T13:59:52.365Z,13.90
2022-08-29T14:02:20.189Z,16.95
2022-08-29T14:04:48.693Z,15.98
2022-08-29T14:07:28.931Z,12.63
2022-08-29T14:09:56.816Z,13.07
2022-08-29T14:12:33.356Z,14.32
2022-08-29T14:15:09.868Z,11.95
2022-08-29T14:17:41.424Z,14.73
2022-08-29T14:20:10.204Z,15.40
2022-08-29T14:22:38.621Z,12.30
2022-08-29T14:25:08.588Z,14.73
2022-08-29T14:27:36.772Z,13.82
2022-08-29T14:30:09.399Z,15.70
2022-08-29T14:32:37.899Z,15.38
2022-08-29T14:35:08.136Z,11.65
2022-08-29T14:37:37.180Z,11.73
2022-08-29T14:40:09.618Z,12.30
2022-08-29T14:42:39.342Z,13.65
2022-08-29T14:45:08.951Z,13.65
2022-08-29T14:47:36.937Z,12.38
2022-08-29T14:50:07.204Z,14.68
2022-08-29T14:52:35.904Z,14.00
2022-08-29T14:55:03.817Z,13.48
2022-08-29T14:57:31.616Z,13.48
2022-08-29T14:59:59.386Z,13.73
2022-08-29T15:02:27.282Z,12.43
2022-08-29T15:04:56.625Z,13.40
2022-08-29T15:07:24.385Z,16.80
2022-08-29T15:09:52.188Z,14.50
2022-08-29T15:12:21.929Z,16.67
2022-08-29T15:14:49.638Z,15.03
2022-08-29T15:17:17.764Z,15.25
2022-08-29T15:20:31.714Z,15.80
2022-08-29T15:22:33.261Z,16.23
2022-08-29T15:25:01.521Z,18.55
2022-08-29T15:27:29.844Z,16.85
2022-08-29T15:29:58.490Z,13.70
2022-08-29T15:32:26.290Z,13.32
2022-08-29T15:34:53.923Z,13.53
2022-08-29T15:37:22.204Z,12.95
2022-08-29T15:39:55.193Z,12.88
2022-08-29T15:42:29.214Z,16.25
2022-08-29T15:44:59.625Z,16.75
2022-08-29T15:47:30.426Z,13.73
2022-08-29T15:49:58.282Z,14.50
2022-08-29T15:52:26.803Z,14.70
2022-08-29T15:54:55.046Z,16.00
2022-08-29T15:57:22.779Z,16.98
2022-08-29T15:59:58.583Z,18.10
2022-08-29T16:02:28.279Z,13.23
2022-08-29T16:04:57.589Z,18.02
2022-08-29T16:07:29.335Z,17.42
2022-08-29T16:10:02.047Z,15.02
2022-08-29T16:12:31.679Z,15.35
2022-08-29T16:15:00.706Z,13.10
2022-08-29T16:17:31.338Z,14.73
2022-08-29T16:20:00.798Z,16.52
2022-08-29T16:22:29.116Z,14.50
2022-08-29T16:24:57.071Z,16.33
2022-08-29T16:27:24.972Z,14.80
2022-08-29T16:29:53.789Z,16.48
2022-08-29T16:32:21.686Z,12.90
2022-08-29T16:34:49.672Z,16.45
2022-08-29T16:37:17.511Z,18.05
2022-08-29T16:39:45.288Z,16.73
2022-08-29T16:42:12.959Z,19.23
2022-08-29T16:44:41.888Z,14.52
2022-08-29T16:47:11.376Z,12.77
2022-08-29T16:49:39.064Z,17.92
2022-08-29T16:52:07.132Z,16.58
2022-08-29T16:54:34.810Z,18.15
2022-08-29T16:57:02.519Z,17.38
2022-08-29T16:59:30.094Z,15.02
2022-08-29T17:01:57.901Z,13.15
2022-08-29T17:04:28.015Z,17.40
2022-08-29T17:06:56.495Z,15.75
2022-08-29T17:09:25.955Z,13.77
2022-08-29T17:11:54.014Z,17.33
2022-08-29T17:14:25.038Z,15.25
2022-08-29T17:16:54.956Z,26.03
2022-08-29T17:19:23.960Z,32.78
2022-08-29T17:21:52.274Z,22.20
2022-08-29T17:24:20.897Z,20.45
2022-08-29T17:26:49.709Z,17.75
2022-08-29T17:29:17.797Z,18.63
2022-08-29T17:31:46.411Z,26.52
2022-08-29T17:34:16.415Z,17.55
2022-08-29T17:36:44.607Z,14.02
2022-08-29T17:39:13.007Z,13.45
2022-08-29T17:41:40.992Z,14.90
2022-08-29T17:44:10.892Z,18.45
2022-08-29T17:46:38.592Z,18.55
2022-08-29T17:49:08.422Z,16.40
2022-08-29T17:51:39.799Z,18.50
2022-08-29T17:54:14.910Z,13.10
2022-08-29T17:56:46.942Z,15.95
2022-08-29T17:59:17.382Z,17.67
2022-08-29T18:01:45.904Z,17.33
2022-08-29T18:04:14.337Z,16.17
2022-08-29T18:06:42.671Z,14.82
2022-08-29T18:09:10.495Z,14.02
2022-08-29T18:11:41.104Z,13.35
2022-08-29T18:14:09.087Z,16.13
2022-08-29T18:16:37.285Z,18.55
2022-08-29T18:19:05.519Z,19.90
2022-08-29T18:21:33.372Z,12.80
2022-08-29T18:24:01.927Z,16.55
2022-08-29T18:26:29.519Z,17.80
2022-08-29T18:28:57.404Z,16.50
2022-08-29T18:31:25.049Z,16.92
2022-08-29T18:34:01.187Z,18.50
2022-08-29T18:36:34.776Z,17.10
2022-08-29T18:39:05.335Z,13.23
2022-08-29T18:41:33.453Z,14.90
2022-08-29T18:44:01.206Z,15.75
2022-08-29T18:46:30.695Z,22.67
2022-08-29T18:48:58.470Z,19.45
2022-08-29T18:51:26.533Z,19.42
2022-08-29T18:53:54.442Z,16.90
2022-08-29T18:56:22.195Z,17.92
2022-08-29T18:58:54.775Z,20.50
2022-08-29T19:01:28.789Z,18.20
2022-08-29T19:03:58.192Z,18.13
2022-08-29T19:06:26.349Z,16.90
2022-08-29T19:08:56.807Z,26.77
2022-08-29T19:11:26.426Z,19.38
2022-08-29T19:13:54.476Z,20.27
2022-08-29T19:16:24.135Z,19.20
2022-08-29T19:18:52.777Z,19.95
2022-08-29T19:21:20.400Z,19.20
2022-08-29T19:23:52.448Z,18.73
2022-08-29T19:26:30.964Z,19.25
2022-08-29T19:29:00.621Z,15.75
2022-08-29T19:31:29.429Z,18.02
2022-08-29T19:33:58.208Z,17.85
2022-08-29T19:36:27.494Z,18.75
2022-08-29T19:38:56.280Z,16.13
2022-08-29T19:41:29.597Z,18.90
2022-08-29T19:43:57.199Z,21.25
2022-08-29T19:46:28.449Z,20.00
2022-08-29T19:48:56.529Z,19.50
2022-08-29T19:51:25.594Z,19.53
2022-08-29T19:53:57.260Z,24.00
2022-08-29T19:56:26.389Z,24.17
2022-08-29T19:58:54.255Z,25.23
2022-08-29T20:01:22.255Z,19.23
2022-08-29T20:03:49.804Z,21.27
2022-08-29T20:06:17.454Z,20.90
2022-08-29T20:08:47.545Z,18.15
2022-08-29T20:11:20.557Z,20.83
2022-08-29T20:13:51.492Z,20.23
2022-08-29T20:16:22.572Z,19.63
2022-08-29T20:18:51.229Z,21.85
2022-08-29T20:21:19.670Z,19.47
2022-08-29T20:23:49.166Z,20.45
2022-08-29T20:26:20.430Z,23.95
2022-08-29T20:28:49.614Z,19.33
2022-08-29T20:31:18.164Z,21.60
2022-08-29T20:33:47.661Z,22.17
2022-08-29T20:36:38.900Z,20.55
2022-08-29T20:39:09.021Z,20.33
2022-08-29T20:41:36.682Z,20.30
2022-08-29T20:44:07.880Z,24.80
2022-08-29T20:46:40.844Z,22.65
2022-08-29T20:49:10.538Z,21.65
2022-08-29T20:51:39.265Z,17.55
2022-08-29T20:54:07.754Z,18.53
2022-08-29T20:56:35.413Z,18.17
2022-08-29T20:59:02.929Z,22.25
2022-08-29T21:01:30.577Z,19.02
2022-08-29T21:04:20.922Z,18.67
2022-08-29T21:06:53.473Z,18.42
2022-08-29T21:09:22.757Z,20.10
2022-08-29T21:11:51.856Z,24.17
2022-08-29T21:14:22.659Z,19.38
2022-08-29T21:16:51.656Z,18.83
2022-08-29T21:19:19.348Z,21.02
2022-08-29T21:21:47.080Z,22.67
2022-08-29T21:24:16.004Z,21.75
2022-08-29T21:26:45.089Z,21.88
2022-08-29T21:29:12.513Z,23.35
2022-08-29T21:31:40.086Z,21.27
2022-08-29T21:34:10.789Z,18.52
2022-08-29T21:36:39.348Z,21.13
2022-08-29T21:39:09.601Z,19.15
2022-08-29T21:41:43.648Z,20.13
2022-08-29T21:44:13.087Z,21.00
2022-08-29T21:46:44.605Z,23.00
2022-08-29T21:49:17.313Z,22.98
2022-08-29T21:51:46.221Z,21.10
2022-08-29T21:54:15.552Z,20.77
2022-08-29T21:56:43.872Z,22.00
2022-08-29T21:59:12.451Z,23.58
2022-08-29T22:01:41.097Z,20.05
2022-08-29T22:04:19.197Z,20.50
2022-08-29T22:06:55.704Z,18.98
2022-08-29T22:09:23.519Z,18.48
2022-08-29T22:11:52.137Z,24.98
2022-08-29T22:14:42.854Z,20.20
2022-08-29T22:17:10.486Z,20.60
2022-08-29T22:19:38.052Z,21.70
2022-08-29T22:22:06.453Z,22.48
2022-08-29T22:24:33.945Z,22.05
2022-08-29T22:27:01.748Z,19.00
2022-08-29T22:29:29.149Z,22.95
2022-08-29T22:31:57.277Z,23.92
2022-08-29T22:34:26.384Z,23.53
2022-08-29T22:36:54.123Z,24.07
2022-08-29T22:39:21.665Z,20.02
2022-08-29T22:41:49.263Z,23.73
2022-08-29T22:44:59.995Z,24.17
2022-08-29T22:47:04.480Z,24.70
2022-08-29T22:49:33.241Z,25.83
2022-08-29T22:52:01.586Z,25.02
2022-08-29T22:54:38.045Z,25.52
2022-08-29T22:57:14.424Z,23.92
2022-08-29T22:59:43.237Z,24.20
2022-08-29T23:02:12.407Z,24.53
2022-08-29T23:04:40.325Z,23.85
2022-08-29T23:07:09.151Z,22.50
2022-08-29T23:09:43.598Z,24.92
2022-08-29T23:12:12.974Z,24.08
2022-08-29T23:14:42.527Z,23.63
2022-08-29T23:17:10.577Z,24.50
2022-08-29T23:19:38.428Z,20.73
2022-08-29T23:22:10.487Z,23.07
2022-08-29T23:24:39.509Z,19.37
2022-08-29T23:27:09.161Z,15.25
2022-08-29T23:29:41.957Z,19.40
2022-08-29T23:32:10.085Z,16.25
2022-08-29T23:34:37.562Z,12.52
2022-08-29T23:37:05.128Z,12.48
2022-08-29T23:39:32.668Z,12.15
2022-08-29T23:42:00.335Z,10.13
2022-08-29T23:44:27.833Z,8.83
2022-08-29T23:46:56.961Z,9.10
2022-08-29T23:49:24.667Z,12.30
2022-08-29T23:51:52.333Z,11.75
2022-08-29T23:54:19.798Z,11.75
2022-08-29T23:56:47.413Z,10.32
2022-08-29T23:59:34.762Z,10.90
